createdAt,value
2022-11-15T00:01:31.073Z,100053.19
2022-11-15T00:04:16.992Z,100049.34
2022-11-15T00:07:02.133Z,100052.72
2022-11-15T00:09:47.705Z,100053.81
2022-11-15T00:12:33.081Z,100051.09
2022-11-15T00:15:18.305Z,100036.53
2022-11-15T00:18:05.100Z,100039.72
2022-11-15T00:20:50.545Z,100039.31
2022-11-15T00:23:35.743Z,100032.84
2022-11-15T00:26:21.190Z,100041.31
2022-11-15T00:29:06.454Z,100037.91
2022-11-15T00:31:51.751Z,100043.81
2022-11-15T00:34:37.197Z,100042.91
2022-11-15T00:37:22.657Z,100037.28
2022-11-15T00:40:08.793Z,100031.75
2022-11-15T00:42:53.761Z,100030.47
2022-11-15T00:45:38.928Z,100029.38
2022-11-15T00:48:24.343Z,100030.47
2022-11-15T00:51:09.670Z,100027.75
2022-11-15T00:53:54.819Z,100024.97
2022-11-15T00:56:39.778Z,100031.94
2022-11-15T00:59:26.017Z,100014.34
2022-11-15T01:02:10.896Z,100021.31
2022-11-15T01:04:56.236Z,100017.22
2022-11-15T01:07:41.551Z,100018.28
2022-11-15T01:10:26.778Z,100022.34
2022-11-15T01:13:12.412Z,100021.09
2022-11-15T01:15:57.819Z,100026.22
2022-11-15T01:18:43.384Z,100027.91
2022-11-15T01:21:28.335Z,100023.38
2022-11-15T01:24:14.123Z,100021.34
2022-11-15T01:26:59.412Z,100017.16
2022-11-15T01:29:44.755Z,100017.75
2022-11-15T01:32:30.109Z,100010.94
2022-11-15T01:35:15.070Z,100010.75
2022-11-15T01:38:00.582Z,100007.16
2022-11-15T01:40:45.753Z,100015.53
2022-11-15T01:43:36.753Z,100008.97
2022-11-15T01:46:30.438Z,100007.81
2022-11-15T01:49:18.611Z,100007.75
2022-11-15T01:52:07.999Z,99999.16
2022-11-15T01:54:59.912Z,99997.47
2022-11-15T01:57:49.819Z,99995.16
2022-11-15T02:00:35.625Z,99990.28
2022-11-15T02:03:26.091Z,99986.88
2022-11-15T02:06:11.490Z,99980.44
2022-11-15T02:08:57.740Z,99981.84
2022-11-15T02:11:44.766Z,99980.31
2022-11-15T02:14:32.039Z,99980.91
2022-11-15T02:17:29.178Z,99981.34
2022-11-15T02:20:45.081Z,99979.84
2022-11-15T02:24:00.941Z,99972.69
2022-11-15T02:27:24.044Z,99972.84
2022-11-15T02:30:47.667Z,99974.06
2022-11-15T02:33:42.194Z,99964.28
2022-11-15T02:36:35.961Z,99954.81
2022-11-15T02:39:29.947Z,99966.72
2022-11-15T02:42:47.672Z,99960.09
2022-11-15T02:45:40.111Z,99966.25
2022-11-15T02:48:26.996Z,99960.81
2022-11-15T02:51:13.700Z,99967.69
2022-11-15T02:53:59.265Z,99968.63
2022-11-15T02:56:46.637Z,99956.50
2022-11-15T03:00:09.352Z,99967.25
2022-11-15T03:03:13.360Z,99969.25
2022-11-15T03:06:26.391Z,99971.41
2022-11-15T03:09:39.461Z,99966.53
2022-11-15T03:12:39.937Z,99955.84
2022-11-15T03:15:32.268Z,99949.78
2022-11-15T03:18:43.662Z,99956.41
2022-11-15T03:21:31.193Z,99959.47
2022-11-15T03:24:23.297Z,99957.41
2022-11-15T03:27:16.343Z,99952.47
2022-11-15T03:30:04.870Z,99956.47
2022-11-15T03:32:58.963Z,99965.06
2022-11-15T03:35:45.809Z,99951.97
2022-11-15T03:38:35.098Z,99951.97
2022-11-15T03:41:29.371Z,99956.31
2022-11-15T03:44:35.403Z,99951.25
2022-11-15T03:47:24.593Z,99941.50
2022-11-15T03:50:13.984Z,99940.56
2022-11-15T03:52:59.905Z,99947.41
2022-11-15T03:55:45.037Z,99938.03
2022-11-15T03:58:30.450Z,99940.72
2022-11-15T04:01:15.862Z,99937.44
2022-11-15T04:04:01.083Z,99937.84
2022-11-15T04:06:46.436Z,99935.94
2022-11-15T04:09:31.584Z,99934.00
2022-11-15T04:12:31.483Z,99931.47
2022-11-15T04:15:19.529Z,99927.13
2022-11-15T04:18:04.832Z,99925.91
2022-11-15T04:21:08.625Z,99925.31
2022-11-15T04:23:54.019Z,99926.78
2022-11-15T04:26:39.274Z,99925.59
2022-11-15T04:29:36.946Z,99923.81
2022-11-15T04:32:22.225Z,99927.16
2022-11-15T04:35:07.961Z,99928.25
2022-11-15T04:37:53.311Z,99919.56
2022-11-15T04:40:38.952Z,99920.78
2022-11-15T04:43:24.215Z,99927.16
2022-11-15T04:46:09.621Z,99928.97
2022-11-15T04:48:58.875Z,99932.31
2022-11-15T04:51:44.808Z,99933.88
2022-11-15T04:54:30.334Z,99931.94
2022-11-15T04:57:15.705Z,99925.44
2022-11-15T05:00:01.305Z,99929.28
2022-11-15T05:03:05.327Z,99924.38
2022-11-15T05:05:50.646Z,99931.47
2022-11-15T05:08:35.888Z,99927.16
2022-11-15T05:11:21.471Z,99929.81
2022-11-15T05:14:06.661Z,99927.66
2022-11-15T05:16:51.774Z,99924.38
2022-11-15T05:19:37.918Z,99927.16
2022-11-15T05:22:23.969Z,99925.72
2022-11-15T05:25:09.581Z,99926.34
2022-11-15T05:27:55.072Z,99922.72
2022-11-15T05:30:40.488Z,99922.47
2022-11-15T05:33:25.714Z,99909.97
2022-11-15T05:36:15.178Z,99909.72
2022-11-15T05:39:00.517Z,99908.03
2022-11-15T05:41:54.532Z,99906.84
2022-11-15T05:44:44.025Z,99917.19
2022-11-15T05:47:31.062Z,99920.66
2022-11-15T05:50:19.302Z,99924.41
2022-11-15T05:53:05.530Z,99919.34
2022-11-15T05:55:50.819Z,99912.38
2022-11-15T05:58:37.709Z,99914.16
2022-11-15T06:01:23.545Z,99912.13
2022-11-15T06:04:09.415Z,99915.34
2022-11-15T06:06:55.006Z,99921.72
2022-11-15T06:09:40.124Z,99915.47
2022-11-15T06:12:25.288Z,99920.78
2022-11-15T06:15:10.689Z,99914.16
2022-11-15T06:17:58.874Z,99908.13
2022-11-15T06:20:44.256Z,99914.16
2022-11-15T06:23:33.424Z,99915.97
2022-11-15T06:26:18.744Z,99921.59
2022-11-15T06:29:05.364Z,99927.84
2022-11-15T06:31:50.441Z,99931.06
2022-11-15T06:34:36.769Z,99928.91
2022-11-15T06:37:22.042Z,99931.69
2022-11-15T06:40:09.401Z,99943.75
2022-11-15T06:42:59.192Z,99941.72
2022-11-15T06:45:44.402Z,99944.00
2022-11-15T06:48:31.430Z,99943.84
2022-11-15T06:51:16.779Z,99942.78
2022-11-15T06:54:01.922Z,99946.63
2022-11-15T06:56:47.316Z,99946.78
2022-11-15T06:59:36.396Z,99956.03
2022-11-15T07:02:26.081Z,99955.34
2022-11-15T07:05:11.775Z,99953.25
2022-11-15T07:07:58.454Z,99945.09
2022-11-15T07:10:43.583Z,99962.28
2022-11-15T07:13:30.532Z,99961.81
2022-11-15T07:16:16.350Z,99966.75
2022-11-15T07:19:02.126Z,99962.75
2022-11-15T07:21:47.650Z,99977.34
2022-11-15T07:24:33.135Z,99978.53
2022-11-15T07:27:18.662Z,99980.84
2022-11-15T07:30:05.821Z,99976.75
2022-11-15T07:32:58.925Z,99988.81
2022-11-15T07:35:44.594Z,99977.75
2022-11-15T07:38:30.893Z,99980.50
2022-11-15T07:41:15.808Z,99982.78
2022-11-15T07:44:01.282Z,99984.50
2022-11-15T07:46:46.804Z,99974.34
2022-11-15T07:49:32.254Z,99981.94
2022-11-15T07:52:17.303Z,99981.56
2022-11-15T07:55:02.387Z,99981.09
2022-11-15T07:57:47.548Z,99981.47
2022-11-15T08:00:33.232Z,99984.72
2022-11-15T08:03:18.490Z,99987.84
2022-11-15T08:06:03.959Z,99991.09
2022-11-15T08:08:49.295Z,99986.06
2022-11-15T08:11:34.651Z,99998.81
2022-11-15T08:14:22.310Z,99987.59
2022-11-15T08:17:07.920Z,99993.00
2022-11-15T08:19:53.235Z,99988.66
2022-11-15T08:22:38.685Z,99987.38
2022-11-15T08:25:27.209Z,99988.56
2022-11-15T08:28:12.805Z,99987.38
2022-11-15T08:30:58.351Z,99978.09
2022-11-15T08:33:43.479Z,99983.03
2022-11-15T08:36:36.892Z,99991.88
2022-11-15T08:39:27.044Z,99987.50
2022-11-15T08:42:16.986Z,99991.69
2022-11-15T08:45:05.565Z,99993.63
2022-11-15T08:47:54.183Z,99981.28
2022-11-15T08:50:40.265Z,99984.84
2022-11-15T08:53:26.018Z,99984.69
2022-11-15T08:56:14.761Z,99975.19
2022-11-15T08:58:59.637Z,99986.72
2022-11-15T09:01:45.014Z,99979.00
2022-11-15T09:04:30.772Z,99986.09
2022-11-15T09:07:16.553Z,99980.94
2022-11-15T09:10:01.978Z,99981.03
2022-11-15T09:12:49.346Z,99977.63
2022-11-15T09:15:35.144Z,99977.06
2022-11-15T09:18:23.155Z,99969.25
2022-11-15T09:21:08.868Z,99975.50
2022-11-15T09:23:54.170Z,99975.78
2022-11-15T09:26:39.650Z,99975.66
2022-11-15T09:29:24.685Z,99967.72
2022-11-15T09:32:10.436Z,99963.28
2022-11-15T09:34:55.508Z,99964.22
2022-11-15T09:37:40.784Z,99968.66
2022-11-15T09:40:27.170Z,99954.38
2022-11-15T09:43:27.770Z,99959.09
2022-11-15T09:46:22.650Z,99964.25
2022-11-15T09:49:10.119Z,99958.28
2022-11-15T09:51:53.249Z,99963.34
2022-11-15T09:54:52.354Z,99963.81
2022-11-15T09:57:22.310Z,99961.75
2022-11-15T10:00:12.260Z,99960.56
2022-11-15T10:03:07.915Z,99948.63
2022-11-15T10:05:43.351Z,99949.84
2022-11-15T10:08:35.815Z,99943.13
2022-11-15T10:13:56.236Z,99933.09
2022-11-15T10:16:43.056Z,99929.63
2022-11-15T10:19:22.116Z,99926.38
2022-11-15T10:22:00.334Z,99918.41
2022-11-15T10:24:29.507Z,99918.31
2022-11-15T10:26:57.453Z,99907.09
2022-11-15T10:29:27.218Z,99904.31
2022-11-15T10:31:54.183Z,99902.66
2022-11-15T10:34:23.703Z,99904.19
2022-11-15T10:37:02.886Z,99896.06
2022-11-15T10:39:29.893Z,99892.53
2022-11-15T10:41:57.890Z,99890.53
2022-11-15T10:44:28.832Z,99891.19
2022-11-15T10:46:55.412Z,99894.88
2022-11-15T10:49:29.615Z,99894.25
2022-11-15T10:52:17.567Z,99875.69
2022-11-15T10:54:47.168Z,99883.59
2022-11-15T10:57:23.516Z,99881.53
2022-11-15T10:59:53.313Z,99873.56
2022-11-15T11:02:34.929Z,99875.75
2022-11-15T11:05:05.230Z,99872.22
2022-11-15T11:07:35.063Z,99864.16
2022-11-15T11:10:09.790Z,99866.22
2022-11-15T11:12:49.576Z,99865.38
2022-11-15T11:15:17.956Z,99852.88
2022-11-15T11:17:53.667Z,99866.97
2022-11-15T11:20:31.003Z,99860.59
2022-11-15T11:23:16.509Z,99865.94
2022-11-15T11:26:09.409Z,99851.28
2022-11-15T11:28:54.814Z,99847.13
2022-11-15T11:31:24.394Z,99850.25
2022-11-15T11:34:13.071Z,99842.44
2022-11-15T11:36:59.008Z,99846.47
2022-11-15T11:39:32.785Z,99831.28
2022-11-15T11:42:24.446Z,99823.31
2022-11-15T11:45:03.710Z,99824.41
2022-11-15T11:47:48.535Z,99833.75
2022-11-15T11:50:20.398Z,99818.41
2022-11-15T11:53:05.102Z,99814.41
2022-11-15T11:55:43.712Z,99822.06
2022-11-15T11:58:49.069Z,99821.56
2022-11-15T12:01:25.677Z,99820.97
2022-11-15T12:03:58.099Z,99820.56
2022-11-15T12:06:47.584Z,99822.09
2022-11-15T12:09:21.703Z,99826.78
2022-11-15T12:12:10.426Z,99819.91
2022-11-15T12:14:59.452Z,99816.13
2022-11-15T12:17:46.853Z,99823.19
2022-11-15T12:20:19.895Z,99817.78
2022-11-15T12:23:13.662Z,99818.34
2022-11-15T12:25:55.600Z,99820.81
2022-11-15T12:28:36.626Z,99812.25
2022-11-15T12:31:32.451Z,99813.81
2022-11-15T12:34:04.295Z,99810.69
2022-11-15T12:36:52.501Z,99803.22
2022-11-15T12:39:20.360Z,99800.72
2022-11-15T12:41:55.954Z,99797.50
2022-11-15T12:44:32.062Z,99790.25
2022-11-15T12:46:58.567Z,99780.44
2022-11-15T12:49:28.571Z,99779.31
2022-11-15T12:52:01.432Z,99777.03
2022-11-15T12:54:30.248Z,99767.06
2022-11-15T12:57:08.897Z,99755.03
2022-11-15T12:59:56.161Z,99761.19
2022-11-15T13:02:28.845Z,99750.75
2022-11-15T13:05:15.547Z,99741.34
2022-11-15T13:07:42.035Z,99747.53
2022-11-15T13:10:14.496Z,99734.78
2022-11-15T13:12:46.978Z,99727.56
2022-11-15T13:15:13.513Z,99724.84
2022-11-15T13:17:50.033Z,99718.28
2022-11-15T13:20:21.942Z,99724.84
2022-11-15T13:23:04.708Z,99705.03
2022-11-15T13:26:00.974Z,99706.88
2022-11-15T13:28:33.672Z,99704.59
2022-11-15T13:31:04.075Z,99705.03
2022-11-15T13:33:39.798Z,99705.25
2022-11-15T13:36:13.448Z,99697.03
2022-11-15T13:38:41.944Z,99685.16
2022-11-15T13:41:17.683Z,99683.66
2022-11-15T13:43:44.838Z,99691.72
2022-11-15T13:46:18.151Z,99689.56
2022-11-15T13:48:48.180Z,99687.03
2022-11-15T13:51:18.008Z,99685.34
2022-11-15T13:53:49.852Z,99682.00
2022-11-15T13:56:19.714Z,99674.19
2022-11-15T13:58:47.245Z,99667.22
2022-11-15T14:01:20.471Z,99666.38
2022-11-15T14:03:57.419Z,99662.97
2022-11-15T14:06:28.097Z,99666.25
2022-11-15T14:09:10.189Z,99656.59
2022-11-15T14:11:37.497Z,99660.06
2022-11-15T14:14:14.107Z,99647.34
2022-11-15T14:16:49.616Z,99649.94
2022-11-15T14:19:22.326Z,99642.38
2022-11-15T14:22:14.553Z,99639.03
2022-11-15T14:24:44.642Z,99633.97
2022-11-15T14:27:23.464Z,99629.28
2022-11-15T14:29:50.393Z,99624.63
2022-11-15T14:32:20.726Z,99625.75
2022-11-15T14:34:49.304Z,99620.63
2022-11-15T14:37:25.357Z,99606.50
2022-11-15T14:39:52.973Z,99610.53
2022-11-15T14:42:20.565Z,99609.66
2022-11-15T14:44:47.595Z,99606.00
2022-11-15T14:47:14.889Z,99598.78
2022-11-15T14:49:41.863Z,99590.38
2022-11-15T14:52:30.388Z,99583.38
2022-11-15T14:55:00.048Z,99578.91
2022-11-15T14:57:26.737Z,99584.00
2022-11-15T14:59:53.759Z,99582.19
2022-11-15T15:02:25.819Z,99577.78
2022-11-15T15:04:53.065Z,99577.03
2022-11-15T15:07:19.707Z,99577.22
2022-11-15T15:09:47.109Z,99564.63
2022-11-15T15:12:22.044Z,99559.03
2022-11-15T15:14:50.448Z,99553.78
2022-11-15T15:17:18.172Z,99547.16
2022-11-15T15:19:44.953Z,99547.53
2022-11-15T15:22:16.354Z,99550.94
2022-11-15T15:24:44.150Z,99535.31
2022-11-15T15:27:11.387Z,99540.44
2022-11-15T15:29:38.240Z,99533.16
2022-11-15T15:32:05.641Z,99530.63
2022-11-15T15:34:33.044Z,99530.94
2022-11-15T15:37:09.858Z,99530.81
2022-11-15T15:39:36.490Z,99527.47
2022-11-15T15:42:04.822Z,99526.66
2022-11-15T15:44:31.391Z,99522.78
2022-11-15T15:46:58.794Z,99515.25
2022-11-15T15:49:25.431Z,99519.38
2022-11-15T15:51:52.056Z,99512.41
2022-11-15T15:54:18.639Z,99506.03
2022-11-15T15:56:45.174Z,99508.19
2022-11-15T15:59:11.718Z,99504.34
2022-11-15T16:01:38.342Z,99496.16
2022-11-15T16:04:04.968Z,99490.34
2022-11-15T16:06:39.978Z,99487.16
2022-11-15T16:09:16.010Z,99489.09
2022-11-15T16:11:45.377Z,99483.88
2022-11-15T16:14:11.868Z,99476.34
2022-11-15T16:16:39.040Z,99478.41
2022-11-15T16:19:06.032Z,99471.41
2022-11-15T16:21:32.683Z,99470.53
2022-11-15T16:23:59.381Z,99470.28
2022-11-15T16:26:30.726Z,99465.06
2022-11-15T16:28:57.253Z,99469.66
2022-11-15T16:31:23.775Z,99470.41
2022-11-15T16:33:50.341Z,99471.72
2022-11-15T16:36:30.015Z,99478.78
2022-11-15T16:38:58.155Z,99469.50
2022-11-15T16:41:24.945Z,99459.56
2022-11-15T16:43:51.704Z,99465.97
2022-11-15T16:46:26.211Z,99457.50
2022-11-15T16:48:56.083Z,99454.25
2022-11-15T16:51:23.632Z,99450.31
2022-11-15T16:53:50.418Z,99449.16
2022-11-15T16:56:28.457Z,99444.31
2022-11-15T16:58:58.358Z,99444.94
2022-11-15T17:01:46.534Z,99443.25
2022-11-15T17:04:13.711Z,99444.31
2022-11-15T17:06:41.278Z,99442.25
2022-11-15T17:09:23.544Z,99436.22
2022-11-15T17:11:50.740Z,99437.00
2022-11-15T17:14:17.710Z,99438.44
2022-11-15T17:16:44.995Z,99440.09
2022-11-15T17:19:16.136Z,99437.59
2022-11-15T17:21:44.090Z,99437.59
2022-11-15T17:24:11.611Z,99428.38
2022-11-15T17:26:40.763Z,99427.84
2022-11-15T17:29:07.964Z,99424.94
2022-11-15T17:31:38.342Z,99433.91
2022-11-15T17:34:06.793Z,99435.88
2022-11-15T17:36:34.115Z,99419.00
2022-11-15T17:39:00.701Z,99419.59
2022-11-15T17:41:28.613Z,99410.44
2022-11-15T17:43:59.884Z,99410.72
2022-11-15T17:46:28.165Z,99416.75
2022-11-15T17:48:55.863Z,99417.31
2022-11-15T17:51:23.928Z,99415.06
2022-11-15T17:53:51.362Z,99420.38
2022-11-15T17:56:23.421Z,99422.94
2022-11-15T17:59:13.695Z,99424.88
2022-11-15T18:01:41.772Z,99422.50
2022-11-15T18:04:09.986Z,99422.16
2022-11-15T18:06:37.060Z,99420.09
2022-11-15T18:09:04.890Z,99420.22
2022-11-15T18:11:41.073Z,99416.72
2022-11-15T18:14:12.295Z,99412.19
2022-11-15T18:16:40.161Z,99411.16
2022-11-15T18:19:11.361Z,99411.72
2022-11-15T18:21:56.328Z,99396.88
2022-11-15T18:24:29.583Z,99405.16
2022-11-15T18:26:57.577Z,99393.88
2022-11-15T18:29:24.879Z,99394.19
2022-11-15T18:31:55.540Z,99396.38
2022-11-15T18:34:24.350Z,99389.22
2022-11-15T18:36:52.829Z,99387.06
2022-11-15T18:39:20.325Z,99390.31
2022-11-15T18:41:48.119Z,99376.94
2022-11-15T18:44:15.933Z,99387.88
2022-11-15T18:46:44.836Z,99374.41
2022-11-15T18:49:14.024Z,99371.66
2022-11-15T18:51:41.894Z,99374.22
2022-11-15T18:54:10.948Z,99367.25
2022-11-15T18:56:37.821Z,99366.69
2022-11-15T18:59:05.375Z,99357.78
2022-11-15T19:01:34.639Z,99359.44
2022-11-15T19:04:08.048Z,99354.69
2022-11-15T19:06:41.437Z,99353.84
2022-11-15T19:09:09.359Z,99357.78
2022-11-15T19:11:39.297Z,99353.38
2022-11-15T19:14:14.249Z,99349.72
2022-11-15T19:16:44.704Z,99352.19
2022-11-15T19:19:16.639Z,99343.38
2022-11-15T19:21:44.010Z,99340.28
2022-11-15T19:24:10.614Z,99338.88
2022-11-15T19:26:37.875Z,99338.94
2022-11-15T19:29:06.109Z,99333.94
2022-11-15T19:31:33.762Z,99335.06
2022-11-15T19:34:04.327Z,99330.19
2022-11-15T19:36:36.740Z,99328.53
2022-11-15T19:39:08.265Z,99334.94
2022-11-15T19:41:36.371Z,99328.53
2022-11-15T19:44:03.283Z,99328.25
2022-11-15T19:46:29.939Z,99336.38
2022-11-15T19:48:56.438Z,99329.72
2022-11-15T19:51:25.445Z,99326.94
2022-11-15T19:53:53.519Z,99331.03
2022-11-15T19:56:21.473Z,99325.56
2022-11-15T19:58:53.325Z,99331.66
2022-11-15T20:01:25.912Z,99329.09
2022-11-15T20:03:54.734Z,99322.16
2022-11-15T20:06:25.118Z,99328.50
2022-11-15T20:08:52.228Z,99318.09
2022-11-15T20:11:19.599Z,99318.41
2022-11-15T20:13:46.720Z,99312.25
2022-11-15T20:16:19.338Z,99315.56
2022-11-15T20:18:46.817Z,99315.31
2022-11-15T20:21:13.751Z,99315.03
2022-11-15T20:23:40.580Z,99312.47
2022-11-15T20:26:08.506Z,99305.94
2022-11-15T20:28:37.405Z,99307.09
2022-11-15T20:31:04.673Z,99303.19
2022-11-15T20:33:31.754Z,99304.81
2022-11-15T20:35:58.376Z,99298.19
2022-11-15T20:38:24.926Z,99301.53
2022-11-15T20:40:57.403Z,99299.59
2022-11-15T20:43:26.954Z,99291.47
2022-11-15T20:45:53.557Z,99290.53
2022-11-15T20:48:20.401Z,99302.69
2022-11-15T20:50:47.328Z,99289.34
2022-11-15T20:53:16.828Z,99287.25
2022-11-15T20:55:47.617Z,99289.50
2022-11-15T20:58:15.954Z,99285.81
2022-11-15T21:00:44.654Z,99278.63
2022-11-15T21:03:13.436Z,99277.53
2022-11-15T21:05:43.876Z,99280.81
2022-11-15T21:08:12.295Z,99275.28
2022-11-15T21:10:59.203Z,99265.25
2022-11-15T21:13:26.672Z,99263.84
2022-11-15T21:15:57.828Z,99268.34
2022-11-15T21:18:24.971Z,99265.00
2022-11-15T21:20:52.120Z,99263.66
2022-11-15T21:23:18.685Z,99263.41
2022-11-15T21:25:50.618Z,99267.53
2022-11-15T21:28:17.880Z,99259.78
2022-11-15T21:30:58.723Z,99258.94
2022-11-15T21:33:27.506Z,99258.59
2022-11-15T21:35:55.237Z,99266.09
2022-11-15T21:38:26.179Z,99255.09
2022-11-15T21:40:53.594Z,99257.28
2022-11-15T21:43:20.978Z,99252.88
2022-11-15T21:46:04.973Z,99250.91
2022-11-15T21:48:34.435Z,99245.16
2022-11-15T21:51:05.175Z,99247.63
2022-11-15T21:53:32.568Z,99239.41
2022-11-15T21:56:00.394Z,99238.19
2022-11-15T21:58:27.544Z,99232.00
2022-11-15T22:01:14.263Z,99233.66
2022-11-15T22:03:42.272Z,99229.25
2022-11-15T22:06:14.331Z,99229.78
2022-11-15T22:08:44.910Z,99222.78
2022-11-15T22:11:11.608Z,99213.03
2022-11-15T22:13:38.457Z,99225.88
2022-11-15T22:16:05.458Z,99217.03
2022-11-15T22:18:32.312Z,99218.75
2022-11-15T22:21:05.006Z,99221.44
2022-11-15T22:23:33.478Z,99213.94
2022-11-15T22:26:00.308Z,99214.69
2022-11-15T22:28:26.900Z,99206.97
2022-11-15T22:30:54.777Z,99208.38
2022-11-15T22:33:23.675Z,99207.03
2022-11-15T22:35:50.570Z,99193.69
2022-11-15T22:38:17.384Z,99193.72
2022-11-15T22:40:44.168Z,99192.84
2022-11-15T22:43:13.345Z,99191.16
2022-11-15T22:45:49.564Z,99184.22
2022-11-15T22:48:16.961Z,99185.63
2022-11-15T22:50:44.244Z,99187.63
2022-11-15T22:53:11.391Z,99187.88
2022-11-15T22:55:40.095Z,99179.25
2022-11-15T22:58:08.569Z,99176.97
2022-11-15T23:00:36.011Z,99176.28
2022-11-15T23:03:02.871Z,99175.16
2022-11-15T23:05:29.613Z,99169.69
2022-11-15T23:07:56.184Z,99168.25
2022-11-15T23:10:41.118Z,99165.78
2022-11-15T23:13:16.103Z,99154.44
2022-11-15T23:16:08.664Z,99161.63
2022-11-15T23:18:43.367Z,99153.81
2022-11-15T23:21:42.010Z,99156.84
2022-11-15T23:24:11.010Z,99151.03
2022-11-15T23:26:38.289Z,99145.19
2022-11-15T23:29:06.445Z,99155.38
2022-11-15T23:32:01.140Z,99152.38
2022-11-15T23:34:30.468Z,99156.22
2022-11-15T23:36:57.116Z,99150.13
2022-11-15T23:39:23.780Z,99142.25
2022-11-15T23:41:50.371Z,99141.19
2022-11-15T23:44:17.075Z,99149.50
2022-11-15T23:46:43.613Z,99145.56
2022-11-15T23:49:10.482Z,99132.19
2022-11-15T23:51:37.017Z,99133.97
2022-11-15T23:54:03.707Z,99129.19
2022-11-15T23:56:30.311Z,99130.88
2022-11-15T23:58:56.872Z,99133.81
